createdAt,value
2022-11-16T00:02:22.618Z,100513.25
2022-11-16T00:04:49.395Z,100514.91
2022-11-16T00:07:16.193Z,100508.56
2022-11-16T00:09:42.939Z,100511.34
2022-11-16T00:12:11.248Z,100512.88
2022-11-16T00:14:38.022Z,100507.28
2022-11-16T00:17:05.105Z,100509.91
2022-11-16T00:19:31.958Z,100507.34
2022-11-16T00:21:59.071Z,100502.59
2022-11-16T00:24:25.754Z,100509.66
2022-11-16T00:26:54.421Z,100510.06
2022-11-16T00:29:23.416Z,100505.09
2022-11-16T00:31:54.098Z,100499.78
2022-11-16T00:34:22.110Z,100503.09
2022-11-16T00:36:48.913Z,100504.78
2022-11-16T00:39:16.592Z,100506.28
2022-11-16T00:41:45.705Z,100511.75
2022-11-16T00:44:12.532Z,100507.25
2022-11-16T00:46:39.731Z,100501.97
2022-11-16T00:49:06.796Z,100497.59
2022-11-16T00:51:34.722Z,100505.56
2022-11-16T00:54:02.235Z,100502.91
2022-11-16T00:56:29.626Z,100499.53
2022-11-16T00:58:56.456Z,100499.69
2022-11-16T01:01:23.302Z,100503.41
2022-11-16T01:03:51.038Z,100502.41
2022-11-16T01:06:20.403Z,100505.13
2022-11-16T01:08:47.323Z,100505.06
2022-11-16T01:11:34.049Z,100500.75
2022-11-16T01:14:03.552Z,100497.09
2022-11-16T01:16:30.704Z,100495.81
2022-11-16T01:18:57.559Z,100505.44
2022-11-16T01:21:25.292Z,100508.00
2022-11-16T01:23:52.159Z,100500.03
2022-11-16T01:26:19.115Z,100498.81
2022-11-16T01:28:45.861Z,100499.69
2022-11-16T01:31:13.333Z,100493.94
2022-11-16T01:33:41.285Z,100507.69
2022-11-16T01:36:17.492Z,100501.72
2022-11-16T01:38:45.866Z,100499.22
2022-11-16T01:41:21.057Z,100488.69
2022-11-16T01:44:06.040Z,100483.47
2022-11-16T01:46:44.337Z,100474.97
2022-11-16T01:49:15.971Z,100463.50
2022-11-16T01:51:44.811Z,100457.16
2022-11-16T01:54:13.471Z,100451.03
2022-11-16T01:56:51.107Z,100449.16
2022-11-16T01:59:29.535Z,100441.97
2022-11-16T02:01:59.866Z,100435.75
2022-11-16T02:04:26.975Z,100438.41
2022-11-16T02:07:04.817Z,100431.44
2022-11-16T02:09:59.015Z,100435.25
2022-11-16T02:12:54.696Z,100428.47
2022-11-16T02:15:36.702Z,100432.81
2022-11-16T02:18:22.747Z,100424.00
2022-11-16T02:21:06.600Z,100431.66
2022-11-16T02:23:43.446Z,100434.13
2022-11-16T02:26:44.109Z,100416.38
2022-11-16T02:29:30.428Z,100418.19
2022-11-16T02:32:11.713Z,100416.53
2022-11-16T02:34:42.378Z,100418.00
2022-11-16T02:37:11.438Z,100413.66
2022-11-16T02:39:39.220Z,100415.34
2022-11-16T02:42:10.859Z,100412.91
2022-11-16T02:44:43.501Z,100419.09
2022-11-16T02:47:13.890Z,100414.84
2022-11-16T02:49:45.816Z,100406.50
2022-11-16T02:52:15.308Z,100404.91
2022-11-16T02:54:42.512Z,100409.41
2022-11-16T02:57:09.493Z,100409.50
2022-11-16T02:59:43.498Z,100412.53
2022-11-16T03:02:53.865Z,100404.31
2022-11-16T03:05:34.632Z,100401.44
2022-11-16T03:08:32.743Z,100402.78
2022-11-16T03:11:24.137Z,100394.81
2022-11-16T03:13:56.471Z,100395.47
2022-11-16T03:16:26.951Z,100409.75
2022-11-16T03:18:55.964Z,100409.03
2022-11-16T03:21:49.930Z,100410.03
2022-11-16T03:24:18.254Z,100408.09
2022-11-16T03:27:26.511Z,100417.63
2022-11-16T03:30:00.420Z,100411.94
2022-11-16T03:32:33.884Z,100407.75
2022-11-16T03:35:11.283Z,100399.66
2022-11-16T03:37:38.951Z,100405.94
2022-11-16T03:40:06.856Z,100394.47
2022-11-16T03:42:34.834Z,100387.16
2022-11-16T03:45:02.261Z,100385.41
2022-11-16T03:47:29.030Z,100376.28
2022-11-16T03:49:55.837Z,100375.06
2022-11-16T03:52:24.106Z,100375.94
2022-11-16T03:54:51.256Z,100374.13
2022-11-16T03:57:18.766Z,100362.69
2022-11-16T03:59:51.597Z,100364.41
2022-11-16T04:02:18.408Z,100357.50
2022-11-16T04:05:04.208Z,100350.59
2022-11-16T04:07:49.570Z,100368.00
2022-11-16T04:10:35.018Z,100369.44
2022-11-16T04:13:22.422Z,100366.81
2022-11-16T04:16:08.694Z,100374.44
2022-11-16T04:18:54.069Z,100371.13
2022-11-16T04:21:45.387Z,100365.06
2022-11-16T04:24:17.821Z,100361.34
2022-11-16T04:27:06.872Z,100356.81
2022-11-16T04:29:34.203Z,100364.66
2022-11-16T04:32:19.576Z,100360.25
2022-11-16T04:35:05.008Z,100351.81
2022-11-16T04:37:50.302Z,100362.84
2022-11-16T04:40:24.303Z,100351.06
2022-11-16T04:43:09.232Z,100353.59
2022-11-16T04:45:58.070Z,100348.06
2022-11-16T04:48:30.287Z,100355.94
2022-11-16T04:50:57.067Z,100358.09
2022-11-16T04:53:27.224Z,100354.69
2022-11-16T04:56:23.424Z,100352.75
2022-11-16T04:58:50.305Z,100355.25
2022-11-16T05:01:17.245Z,100355.03
2022-11-16T05:03:44.139Z,100361.00
2022-11-16T05:06:10.887Z,100356.47
2022-11-16T05:08:37.712Z,100357.53
2022-11-16T05:11:05.527Z,100346.56
2022-11-16T05:13:32.786Z,100350.56
2022-11-16T05:16:00.563Z,100344.22
2022-11-16T05:18:27.354Z,100354.72
2022-11-16T05:21:03.285Z,100354.72
2022-11-16T05:23:54.286Z,100364.50
2022-11-16T05:26:23.169Z,100367.06
2022-11-16T05:28:51.105Z,100368.94
2022-11-16T05:31:18.164Z,100378.56
2022-11-16T05:33:45.255Z,100371.25
2022-11-16T05:36:14.662Z,100373.13
2022-11-16T05:38:41.511Z,100369.38
2022-11-16T05:41:08.366Z,100368.81
2022-11-16T05:43:35.141Z,100368.75
2022-11-16T05:46:11.117Z,100368.63
2022-11-16T05:48:38.800Z,100377.34
2022-11-16T05:51:06.438Z,100386.22
2022-11-16T05:53:34.475Z,100380.06
2022-11-16T05:56:01.269Z,100381.72
2022-11-16T05:58:29.245Z,100378.13
2022-11-16T06:00:58.362Z,100376.00
2022-11-16T06:03:25.319Z,100379.69
2022-11-16T06:05:55.316Z,100382.38
2022-11-16T06:08:24.918Z,100385.59
2022-11-16T06:10:53.444Z,100381.91
2022-11-16T06:13:20.445Z,100383.66
2022-11-16T06:15:52.989Z,100389.31
2022-11-16T06:18:19.895Z,100387.44
2022-11-16T06:20:48.431Z,100383.22
2022-11-16T06:23:15.309Z,100391.03
2022-11-16T06:25:42.262Z,100392.72
2022-11-16T06:28:09.783Z,100390.88
2022-11-16T06:30:38.370Z,100389.09
2022-11-16T06:33:06.655Z,100392.75
2022-11-16T06:35:33.524Z,100388.28
2022-11-16T06:38:00.850Z,100392.00
2022-11-16T06:40:27.626Z,100395.09
2022-11-16T06:42:54.394Z,100401.09
2022-11-16T06:45:21.641Z,100391.41
2022-11-16T06:47:52.990Z,100395.19
2022-11-16T06:50:19.956Z,100393.44
2022-11-16T06:52:48.279Z,100393.00
2022-11-16T06:55:16.250Z,100392.00
2022-11-16T06:57:43.257Z,100387.44
2022-11-16T07:00:11.526Z,100381.06
2022-11-16T07:02:39.400Z,100378.56
2022-11-16T07:05:09.658Z,100377.69
2022-11-16T07:07:36.830Z,100379.13
2022-11-16T07:10:04.332Z,100379.63
2022-11-16T07:12:32.472Z,100387.38
2022-11-16T07:15:00.600Z,100395.50
2022-11-16T07:17:29.999Z,100392.19
2022-11-16T07:19:59.178Z,100399.28
2022-11-16T07:22:26.156Z,100401.81
2022-11-16T07:24:53.756Z,100398.16
2022-11-16T07:27:21.397Z,100409.56
2022-11-16T07:29:50.669Z,100400.72
2022-11-16T07:32:36.077Z,100409.03
2022-11-16T07:35:29.278Z,100410.06
2022-11-16T07:37:56.260Z,100410.28
2022-11-16T07:40:23.099Z,100414.47
2022-11-16T07:42:50.125Z,100410.50
2022-11-16T07:45:46.122Z,100407.75
2022-11-16T07:48:12.938Z,100406.94
2022-11-16T07:51:14.028Z,100404.75
2022-11-16T07:53:47.035Z,100401.59
2022-11-16T07:56:13.737Z,100412.53
2022-11-16T07:58:41.802Z,100413.53
2022-11-16T08:01:15.253Z,100406.59
2022-11-16T08:03:44.459Z,100408.28
2022-11-16T08:06:32.480Z,100407.88
2022-11-16T08:08:59.733Z,100398.41
2022-11-16T08:11:28.570Z,100396.63
2022-11-16T08:13:57.162Z,100393.69
2022-11-16T08:16:24.696Z,100388.06
2022-11-16T08:19:00.976Z,100388.88
2022-11-16T08:21:27.930Z,100387.84
2022-11-16T08:23:58.335Z,100391.44
2022-11-16T08:26:26.128Z,100383.34
2022-11-16T08:28:58.581Z,100374.84
2022-11-16T08:31:30.209Z,100372.00
2022-11-16T08:34:08.003Z,100367.63
2022-11-16T08:36:36.459Z,100368.53
2022-11-16T08:39:03.810Z,100367.56
2022-11-16T08:41:32.218Z,100366.44
2022-11-16T08:44:01.258Z,100353.91
2022-11-16T08:46:30.093Z,100360.59
2022-11-16T08:49:07.237Z,100354.28
2022-11-16T08:51:34.269Z,100350.25
2022-11-16T08:54:05.388Z,100351.19
2022-11-16T08:56:35.352Z,100357.34
2022-11-16T08:59:05.231Z,100349.31
2022-11-16T09:01:33.062Z,100347.09
2022-11-16T09:04:01.575Z,100344.16
2022-11-16T09:06:29.439Z,100348.34
2022-11-16T09:08:58.743Z,100345.47
2022-11-16T09:11:28.408Z,100342.78
2022-11-16T09:13:56.182Z,100345.78
2022-11-16T09:16:23.782Z,100346.81
2022-11-16T09:18:51.459Z,100347.59
2022-11-16T09:21:20.576Z,100350.97
2022-11-16T09:23:48.219Z,100348.31
2022-11-16T09:26:15.434Z,100345.84
2022-11-16T09:28:42.860Z,100344.31
2022-11-16T09:31:10.389Z,100344.38
2022-11-16T09:33:37.427Z,100338.97
2022-11-16T09:36:07.372Z,100331.00
2022-11-16T09:39:03.315Z,100341.22
2022-11-16T09:41:37.423Z,100328.38
2022-11-16T09:44:08.206Z,100324.78
2022-11-16T09:46:38.759Z,100317.84
2022-11-16T09:49:19.993Z,100316.75
2022-11-16T09:51:53.751Z,100319.84
2022-11-16T09:54:23.172Z,100313.38
2022-11-16T09:56:52.859Z,100310.09
2022-11-16T09:59:28.971Z,100314.97
2022-11-16T10:01:58.724Z,100314.88
2022-11-16T10:04:28.471Z,100314.03
2022-11-16T10:07:02.059Z,100322.88
2022-11-16T10:09:29.759Z,100317.56
2022-11-16T10:12:28.928Z,100326.44
2022-11-16T10:15:23.728Z,100322.03
2022-11-16T10:18:02.678Z,100322.97
2022-11-16T10:20:58.252Z,100318.41
2022-11-16T10:23:50.949Z,100321.00
2022-11-16T10:26:28.644Z,100315.84
2022-11-16T10:29:05.309Z,100316.91
2022-11-16T10:31:48.787Z,100319.34
2022-11-16T10:34:23.654Z,100321.09
2022-11-16T10:36:50.708Z,100321.25
2022-11-16T10:39:20.288Z,100322.81
2022-11-16T10:41:50.851Z,100317.78
2022-11-16T10:44:33.735Z,100319.56
2022-11-16T10:47:06.638Z,100323.03
2022-11-16T10:49:37.872Z,100321.22
2022-11-16T10:52:05.028Z,100313.53
2022-11-16T10:54:31.777Z,100315.00
2022-11-16T10:57:05.241Z,100311.34
2022-11-16T10:59:42.060Z,100308.53
2022-11-16T11:02:34.897Z,100306.03
2022-11-16T11:05:03.514Z,100302.56
2022-11-16T11:07:32.977Z,100300.72
2022-11-16T11:09:59.904Z,100302.53
2022-11-16T11:12:39.872Z,100296.44
2022-11-16T11:15:13.510Z,100302.41
2022-11-16T11:17:47.301Z,100296.63
2022-11-16T11:20:17.272Z,100281.13
2022-11-16T11:22:56.146Z,100286.16
2022-11-16T11:25:30.362Z,100304.13
2022-11-16T11:28:22.246Z,100285.66
2022-11-16T11:31:30.430Z,100292.78
2022-11-16T11:34:05.415Z,100293.50
2022-11-16T11:36:43.548Z,100293.47
2022-11-16T11:39:13.489Z,100306.72
2022-11-16T11:41:44.649Z,100300.09
2022-11-16T11:44:18.282Z,100301.97
2022-11-16T11:47:42.755Z,100300.31
2022-11-16T11:49:42.494Z,100297.47
2022-11-16T11:52:19.030Z,100306.06
2022-11-16T11:54:49.583Z,100313.47
2022-11-16T11:57:22.275Z,100312.56
2022-11-16T11:59:51.002Z,100309.28
2022-11-16T12:02:46.470Z,100302.81
2022-11-16T12:05:29.617Z,100304.25
2022-11-16T12:08:04.773Z,100294.25
2022-11-16T12:10:40.607Z,100297.81
2022-11-16T12:13:16.677Z,100298.75
2022-11-16T12:15:49.769Z,100294.28
2022-11-16T12:19:01.568Z,100307.72
2022-11-16T12:21:50.838Z,100302.94
2022-11-16T12:24:23.597Z,100300.97
2022-11-16T12:27:07.451Z,100299.19
2022-11-16T12:30:01.312Z,100304.09
2022-11-16T12:32:36.944Z,100296.81
2022-11-16T12:35:25.334Z,100300.28
2022-11-16T12:38:15.271Z,100298.31
2022-11-16T12:40:55.917Z,100297.56
2022-11-16T12:43:43.953Z,100294.72
2022-11-16T12:46:42.745Z,100290.38
2022-11-16T12:49:24.484Z,100298.94
2022-11-16T12:52:06.494Z,100290.78
2022-11-16T12:55:28.213Z,100305.09
2022-11-16T12:58:20.841Z,100299.19
2022-11-16T13:01:16.158Z,100298.63
2022-11-16T13:03:50.136Z,100288.44
2022-11-16T13:06:21.905Z,100290.31
2022-11-16T13:09:06.875Z,100286.72
2022-11-16T13:11:47.438Z,100289.78
2022-11-16T13:14:19.858Z,100287.47
2022-11-16T13:16:48.088Z,100285.44
2022-11-16T13:19:16.113Z,100294.22
2022-11-16T13:21:51.977Z,100285.63
2022-11-16T13:24:30.812Z,100283.28
2022-11-16T13:27:13.038Z,100279.91
2022-11-16T13:30:05.290Z,100274.41
2022-11-16T13:32:48.467Z,100277.56
2022-11-16T13:35:17.057Z,100268.78
2022-11-16T13:37:45.481Z,100278.59
2022-11-16T13:40:25.115Z,100278.69
2022-11-16T13:43:02.433Z,100274.03
2022-11-16T13:45:40.350Z,100282.19
2022-11-16T13:48:20.215Z,100272.59
2022-11-16T13:50:50.210Z,100279.06
2022-11-16T13:56:24.158Z,100274.31
2022-11-16T13:58:55.982Z,100277.38
2022-11-16T14:01:24.106Z,100276.03
2022-11-16T14:03:52.122Z,100276.84
2022-11-16T14:06:25.113Z,100276.13
2022-11-16T14:08:55.733Z,100281.44
2022-11-16T14:11:37.431Z,100270.75
2022-11-16T14:14:42.387Z,100262.34
2022-11-16T14:17:09.074Z,100266.63
2022-11-16T14:19:47.627Z,100263.69
2022-11-16T14:22:36.483Z,100264.41
2022-11-16T14:25:16.663Z,100267.34
2022-11-16T14:27:52.133Z,100267.88
2022-11-16T14:30:28.945Z,100270.53
2022-11-16T14:32:56.578Z,100269.75
2022-11-16T14:35:30.410Z,100271.19
2022-11-16T14:37:58.841Z,100273.19
2022-11-16T14:40:25.799Z,100273.66
2022-11-16T14:46:01.098Z,100269.84
2022-11-16T14:48:30.758Z,100263.63
2022-11-16T14:51:21.273Z,100264.81
2022-11-16T14:53:50.776Z,100261.06
2022-11-16T14:56:21.885Z,100258.03
2022-11-16T14:59:17.571Z,100253.13
2022-11-16T15:01:44.917Z,100249.13
2022-11-16T15:04:16.743Z,100253.66
2022-11-16T15:06:50.162Z,100245.44
2022-11-16T15:09:22.018Z,100258.31
2022-11-16T15:12:08.639Z,100244.56
2022-11-16T15:14:40.502Z,100248.22
2022-11-16T15:17:09.149Z,100250.09
2022-11-16T15:19:36.402Z,100244.88
2022-11-16T15:22:04.726Z,100254.78
2022-11-16T15:24:33.557Z,100247.66
2022-11-16T15:27:19.156Z,100262.66
2022-11-16T15:29:46.097Z,100254.69
2022-11-16T15:32:15.973Z,100256.91
2022-11-16T15:34:47.694Z,100255.78
2022-11-16T15:37:15.458Z,100246.16
2022-11-16T15:39:43.024Z,100246.63
2022-11-16T15:42:14.044Z,100247.44
2022-11-16T15:44:41.342Z,100240.34
2022-11-16T15:47:10.490Z,100249.75
2022-11-16T15:49:38.471Z,100242.66
2022-11-16T15:52:05.952Z,100247.50
2022-11-16T15:54:52.758Z,100248.47
2022-11-16T15:57:20.868Z,100237.41
2022-11-16T15:59:54.789Z,100240.97
2022-11-16T16:02:23.257Z,100242.13
2022-11-16T16:04:50.175Z,100250.25
2022-11-16T16:07:39.919Z,100245.25
2022-11-16T16:10:24.005Z,100241.97
2022-11-16T16:13:01.277Z,100249.22
2022-11-16T16:15:34.228Z,100246.97
2022-11-16T16:18:02.531Z,100243.09
2022-11-16T16:20:31.501Z,100242.84
2022-11-16T16:23:16.609Z,100240.44
2022-11-16T16:25:49.010Z,100242.19
2022-11-16T16:28:16.972Z,100243.75
2022-11-16T16:30:44.038Z,100250.75
2022-11-16T16:33:18.744Z,100255.34
2022-11-16T16:35:49.920Z,100252.47
2022-11-16T16:38:17.113Z,100258.75
2022-11-16T16:40:43.927Z,100256.75
2022-11-16T16:43:14.089Z,100258.50
2022-11-16T16:45:43.911Z,100255.28
2022-11-16T16:48:14.449Z,100261.19
2022-11-16T16:50:41.205Z,100253.09
2022-11-16T16:53:11.568Z,100253.41
2022-11-16T16:55:38.553Z,100261.25
2022-11-16T16:58:05.864Z,100260.19
2022-11-16T17:00:33.026Z,100259.31
2022-11-16T17:02:59.736Z,100271.81
2022-11-16T17:05:26.685Z,100266.91
2022-11-16T17:07:56.782Z,100259.94
2022-11-16T17:10:24.164Z,100261.34
2022-11-16T17:12:54.115Z,100263.84
2022-11-16T17:15:21.087Z,100257.69
2022-11-16T17:17:48.580Z,100247.94
2022-11-16T17:20:16.465Z,100246.84
2022-11-16T17:22:45.709Z,100239.31
2022-11-16T17:25:12.511Z,100243.47
2022-11-16T17:27:39.684Z,100248.88
2022-11-16T17:30:07.654Z,100254.59
2022-11-16T17:32:34.525Z,100259.88
2022-11-16T17:35:02.388Z,100253.44
2022-11-16T17:37:29.261Z,100265.69
2022-11-16T17:39:56.072Z,100260.38
2022-11-16T17:42:22.840Z,100264.47
2022-11-16T17:44:50.040Z,100267.03
2022-11-16T17:47:16.869Z,100263.53
2022-11-16T17:49:43.921Z,100263.25
2022-11-16T17:52:11.162Z,100262.56
2022-11-16T17:54:38.121Z,100267.69
2022-11-16T17:57:04.965Z,100266.88
2022-11-16T17:59:31.838Z,100272.09
2022-11-16T18:01:58.927Z,100271.66
2022-11-16T18:04:25.772Z,100273.28
2022-11-16T18:06:52.711Z,100267.09
2022-11-16T18:09:19.659Z,100258.47
2022-11-16T18:11:46.507Z,100261.94
2022-11-16T18:14:13.872Z,100259.97
2022-11-16T18:16:43.345Z,100257.13
2022-11-16T18:19:16.192Z,100263.69
2022-11-16T18:21:43.134Z,100268.06
2022-11-16T18:24:17.017Z,100273.22
2022-11-16T18:26:45.840Z,100258.91
2022-11-16T18:29:15.970Z,100258.97
2022-11-16T18:31:43.106Z,100267.63
2022-11-16T18:34:12.477Z,100260.75
2022-11-16T18:36:39.245Z,100258.78
2022-11-16T18:39:07.297Z,100264.31
2022-11-16T18:41:34.658Z,100255.69
2022-11-16T18:44:02.041Z,100256.72
2022-11-16T18:46:31.090Z,100260.06
2022-11-16T18:48:58.493Z,100251.34
2022-11-16T18:51:27.385Z,100256.63
2022-11-16T18:53:54.731Z,100257.16
2022-11-16T18:56:22.286Z,100253.06
2022-11-16T18:58:51.426Z,100257.25
2022-11-16T19:01:22.098Z,100251.59
2022-11-16T19:03:50.003Z,100250.63
2022-11-16T19:06:18.266Z,100255.09
2022-11-16T19:08:50.403Z,100250.88
2022-11-16T19:11:21.922Z,100256.41
2022-11-16T19:13:52.985Z,100246.13
2022-11-16T19:16:19.998Z,100245.31
2022-11-16T19:18:46.854Z,100253.06
2022-11-16T19:21:15.459Z,100253.84
2022-11-16T19:23:44.565Z,100257.47
2022-11-16T19:26:13.591Z,100257.56
2022-11-16T19:28:42.695Z,100255.78
2022-11-16T19:31:18.841Z,100257.69
2022-11-16T19:33:45.940Z,100255.66
2022-11-16T19:36:15.371Z,100255.81
2022-11-16T19:38:43.150Z,100254.16
2022-11-16T19:41:11.592Z,100254.06
2022-11-16T19:43:38.948Z,100251.41
2022-11-16T19:46:11.190Z,100251.41
2022-11-16T19:48:38.965Z,100266.41
2022-11-16T19:51:10.881Z,100271.41
2022-11-16T19:53:39.999Z,100270.50
2022-11-16T19:56:09.400Z,100270.94
2022-11-16T19:58:38.416Z,100269.50
2022-11-16T20:01:08.445Z,100265.16
2022-11-16T20:03:38.480Z,100277.50
2022-11-16T20:06:13.798Z,100276.31
2022-11-16T20:08:42.342Z,100279.22
2022-11-16T20:11:16.649Z,100281.44
2022-11-16T20:13:43.939Z,100279.09
2022-11-16T20:16:12.276Z,100293.41
2022-11-16T20:18:40.597Z,100292.31
2022-11-16T20:21:08.885Z,100292.94
2022-11-16T20:23:36.341Z,100288.41
2022-11-16T20:26:08.275Z,100284.06
2022-11-16T20:28:37.081Z,100280.53
2022-11-16T20:31:07.388Z,100279.34
2022-11-16T20:33:35.086Z,100284.47
2022-11-16T20:36:11.816Z,100293.31
2022-11-16T20:38:39.401Z,100291.53
2022-11-16T20:41:14.332Z,100283.69
2022-11-16T20:43:42.396Z,100278.22
2022-11-16T20:46:10.349Z,100283.78
2022-11-16T20:48:38.433Z,100292.66
2022-11-16T20:51:06.022Z,100289.19
2022-11-16T20:53:33.463Z,100285.69
2022-11-16T20:56:03.962Z,100289.75
2022-11-16T20:58:31.749Z,100286.44
2022-11-16T21:01:10.342Z,100291.63
2022-11-16T21:03:37.771Z,100291.72
2022-11-16T21:06:08.941Z,100286.66
2022-11-16T21:08:36.799Z,100295.16
2022-11-16T21:11:10.341Z,100289.72
2022-11-16T21:13:55.918Z,100297.81
2022-11-16T21:16:22.738Z,100303.34
2022-11-16T21:18:49.766Z,100296.22
2022-11-16T21:21:16.688Z,100287.63
2022-11-16T21:23:47.442Z,100294.47
2022-11-16T21:26:15.332Z,100290.00
2022-11-16T21:28:44.907Z,100289.94
2022-11-16T21:31:16.877Z,100293.22
2022-11-16T21:33:47.663Z,100285.22
2022-11-16T21:36:22.604Z,100281.63
2022-11-16T21:38:49.843Z,100284.59
2022-11-16T21:41:18.160Z,100289.03
2022-11-16T21:43:45.289Z,100298.41
2022-11-16T21:46:17.124Z,100301.16
2022-11-16T21:48:44.641Z,100291.50
2022-11-16T21:51:16.957Z,100296.66
2022-11-16T21:53:44.440Z,100278.22
2022-11-16T21:56:20.218Z,100292.31
2022-11-16T21:58:47.753Z,100281.50
2022-11-16T22:01:16.389Z,100291.34
2022-11-16T22:03:43.479Z,100290.47
2022-11-16T22:06:32.456Z,100276.59
2022-11-16T22:08:59.459Z,100277.78
2022-11-16T22:11:26.786Z,100285.09
2022-11-16T22:13:53.636Z,100284.78
2022-11-16T22:16:21.554Z,100279.44
2022-11-16T22:18:48.311Z,100283.19
2022-11-16T22:21:15.120Z,100291.06
2022-11-16T22:23:42.076Z,100285.72
2022-11-16T22:26:11.286Z,100279.88
2022-11-16T22:28:38.718Z,100278.81
2022-11-16T22:31:07.841Z,100275.41
2022-11-16T22:33:35.070Z,100280.63
2022-11-16T22:36:03.826Z,100275.31
2022-11-16T22:38:31.253Z,100275.28
2022-11-16T22:40:58.346Z,100273.25
2022-11-16T22:43:27.600Z,100270.28
2022-11-16T22:45:59.121Z,100273.88
2022-11-16T22:48:33.330Z,100272.06
2022-11-16T22:51:11.361Z,100263.50
2022-11-16T22:53:38.553Z,100266.44
2022-11-16T22:56:07.068Z,100267.31
2022-11-16T22:58:34.679Z,100273.44
2022-11-16T23:01:01.886Z,100268.00
2022-11-16T23:03:29.528Z,100261.88
2022-11-16T23:05:56.385Z,100268.09
2022-11-16T23:08:25.134Z,100263.19
2022-11-16T23:11:37.868Z,100268.69
2022-11-16T23:14:23.948Z,100265.72
2022-11-16T23:16:50.934Z,100271.44
2022-11-16T23:19:37.902Z,100261.53
2022-11-16T23:22:23.927Z,100248.28
2022-11-16T23:25:09.517Z,100244.38
2022-11-16T23:27:55.942Z,100247.63
2022-11-16T23:30:23.381Z,100249.97
2022-11-16T23:32:50.181Z,100250.06
2022-11-16T23:35:17.487Z,100246.34
2022-11-16T23:37:57.127Z,100243.94
2022-11-16T23:40:34.851Z,100239.00
2022-11-16T23:43:20.371Z,100239.03
2022-11-16T23:45:47.386Z,100239.25
2022-11-16T23:48:15.599Z,100231.47
2022-11-16T23:50:43.007Z,100218.06
2022-11-16T23:53:10.420Z,100224.53
2022-11-16T23:55:40.982Z,100216.50
2022-11-16T23:58:12.606Z,100223.47
